createdAt,value
2018-11-21T00:01:22.517Z,21.33
2018-11-21T00:03:50.166Z,22.23
2018-11-21T00:06:17.466Z,19.93
2018-11-21T00:08:44.849Z,22.10
2018-11-21T00:11:14.623Z,22.00
2018-11-21T00:13:42.016Z,22.40
2018-11-21T00:16:09.549Z,22.60
2018-11-21T00:18:36.889Z,21.27
2018-11-21T00:21:04.253Z,21.45
2018-11-21T00:23:32.042Z,21.55
2018-11-21T00:25:59.295Z,22.30
2018-11-21T00:28:26.636Z,22.07
2018-11-21T00:30:53.977Z,23.53
2018-11-21T00:33:21.286Z,21.05
2018-11-21T00:35:49.063Z,23.23
2018-11-21T00:38:16.384Z,23.95
2018-11-21T00:40:43.676Z,22.95
2018-11-21T00:43:11.023Z,23.60
2018-11-21T00:45:38.353Z,23.97
2018-11-21T00:48:05.670Z,22.00
2018-11-21T00:50:32.960Z,23.47
2018-11-21T00:53:00.286Z,23.30
2018-11-21T00:55:27.615Z,23.12
2018-11-21T00:57:54.934Z,22.07
2018-11-21T01:00:22.285Z,24.02
2018-11-21T01:02:49.618Z,23.97
2018-11-21T01:05:17.650Z,23.27
2018-11-21T01:07:45.016Z,23.00
2018-11-21T01:10:12.363Z,22.67
2018-11-21T01:12:39.736Z,22.02
2018-11-21T01:15:09.862Z,23.53
2018-11-21T01:17:37.199Z,22.90
2018-11-21T01:20:06.003Z,22.00
2018-11-21T01:22:33.475Z,23.47
2018-11-21T01:25:00.781Z,22.70
2018-11-21T01:27:28.106Z,23.63
2018-11-21T01:29:57.866Z,21.27
2018-11-21T01:32:25.262Z,21.93
2018-11-21T01:34:52.611Z,22.25
2018-11-21T01:37:19.946Z,21.73
2018-11-21T01:39:47.332Z,22.27
2018-11-21T01:42:14.617Z,20.20
2018-11-21T01:44:42.119Z,21.45
2018-11-21T01:47:09.448Z,21.35
2018-11-21T01:49:36.759Z,20.47
2018-11-21T01:52:04.708Z,21.60
2018-11-21T01:54:34.231Z,20.87
2018-11-21T01:57:01.655Z,19.97
2018-11-21T01:59:29.058Z,20.55
2018-11-21T02:01:56.461Z,19.98
2018-11-21T02:04:23.769Z,20.05
2018-11-21T02:06:51.101Z,20.00
2018-11-21T02:09:18.433Z,20.35
2018-11-21T02:11:45.715Z,20.17
2018-11-21T02:14:13.097Z,20.15
2018-11-21T02:16:40.434Z,20.80
2018-11-21T02:19:07.867Z,20.07
2018-11-21T02:21:35.204Z,19.33
2018-11-21T02:24:02.600Z,20.03
2018-11-21T02:26:29.910Z,19.63
2018-11-21T02:28:57.244Z,19.17
2018-11-21T02:31:24.569Z,20.17
2018-11-21T02:33:51.930Z,21.27
2018-11-21T02:36:19.242Z,19.20
2018-11-21T02:38:46.602Z,19.67
2018-11-21T02:41:14.121Z,19.73
2018-11-21T02:43:41.525Z,19.93
2018-11-21T02:46:08.941Z,19.60
2018-11-21T02:48:36.278Z,18.67
2018-11-21T02:51:03.654Z,21.07
2018-11-21T02:53:30.971Z,20.23
2018-11-21T02:55:58.309Z,19.87
2018-11-21T02:58:25.660Z,20.52
2018-11-21T03:00:53.127Z,21.33
2018-11-21T03:03:20.856Z,21.40
2018-11-21T03:05:48.209Z,19.20
2018-11-21T03:08:15.542Z,19.40
2018-11-21T03:10:42.892Z,19.80
2018-11-21T03:13:10.232Z,20.07
2018-11-21T03:15:37.539Z,20.77
2018-11-21T03:18:05.060Z,20.43
2018-11-21T03:20:32.465Z,20.57
2018-11-21T03:22:59.783Z,20.10
2018-11-21T03:25:27.122Z,21.68
2018-11-21T03:27:54.433Z,20.60
2018-11-21T03:30:21.828Z,20.00
2018-11-21T03:32:49.457Z,20.02
2018-11-21T03:35:16.822Z,20.68
2018-11-21T03:37:44.191Z,22.37
2018-11-21T03:40:12.026Z,21.68
2018-11-21T03:42:39.662Z,21.87
2018-11-21T03:45:08.628Z,20.92
2018-11-21T03:47:38.748Z,20.77
2018-11-21T03:50:10.863Z,20.20
2018-11-21T03:52:38.440Z,21.45
2018-11-21T03:55:06.282Z,22.48
2018-11-21T03:57:33.742Z,23.18
2018-11-21T04:00:01.063Z,21.90
2018-11-21T04:02:28.455Z,23.25
2018-11-21T04:04:55.925Z,23.05
2018-11-21T04:07:23.244Z,22.22
2018-11-21T04:09:52.790Z,24.72
2018-11-21T04:12:22.632Z,24.70
2018-11-21T04:14:52.881Z,23.20
2018-11-21T04:17:20.198Z,22.70
2018-11-21T04:19:47.666Z,23.18
2018-11-21T04:22:14.976Z,21.37
2018-11-21T04:24:42.274Z,21.90
2018-11-21T04:27:09.660Z,24.07
2018-11-21T04:29:39.194Z,23.30
2018-11-21T04:32:06.555Z,24.15
2018-11-21T04:34:33.914Z,22.50
2018-11-21T04:37:01.255Z,23.75
2018-11-21T04:39:28.712Z,24.02
2018-11-21T04:41:56.000Z,23.75
2018-11-21T04:44:23.352Z,23.35
2018-11-21T04:46:50.717Z,22.90
2018-11-21T04:49:18.072Z,24.05
2018-11-21T04:51:47.515Z,23.90
2018-11-21T04:54:14.891Z,21.57
2018-11-21T04:56:44.512Z,20.12
2018-11-21T04:59:11.886Z,21.17
2018-11-21T05:01:39.235Z,21.15
2018-11-21T05:04:06.606Z,20.12
2018-11-21T05:06:33.918Z,21.90
2018-11-21T05:09:01.286Z,20.65
2018-11-21T05:11:28.837Z,22.17
2018-11-21T05:13:57.123Z,22.37
2018-11-21T05:16:24.482Z,22.27
2018-11-21T05:18:52.284Z,21.15
2018-11-21T05:21:19.674Z,21.40
2018-11-21T05:23:47.191Z,22.05
2018-11-21T05:26:14.503Z,22.73
2018-11-21T05:28:41.857Z,21.27
2018-11-21T05:31:09.989Z,21.70
2018-11-21T05:33:37.940Z,20.20
2018-11-21T05:36:05.314Z,20.90
2018-11-21T05:38:32.665Z,21.07
2018-11-21T05:41:00.127Z,21.02
2018-11-21T05:43:27.786Z,21.15
2018-11-21T05:46:00.292Z,21.23
2018-11-21T05:48:27.820Z,20.15
2018-11-21T05:50:55.258Z,20.40
2018-11-21T05:53:22.603Z,19.87
2018-11-21T05:55:52.731Z,22.17
2018-11-21T05:58:20.088Z,21.42
2018-11-21T06:00:50.616Z,23.10
2018-11-21T06:03:24.501Z,21.30
2018-11-21T06:05:52.062Z,20.88
2018-11-21T06:08:22.240Z,21.48
2018-11-21T06:10:49.607Z,20.25
2018-11-21T06:13:20.178Z,20.62
2018-11-21T06:15:47.749Z,20.57
2018-11-21T06:18:15.282Z,20.72
2018-11-21T06:20:42.625Z,20.15
2018-11-21T06:23:10.168Z,20.62
2018-11-21T06:25:37.535Z,20.23
2018-11-21T06:28:04.874Z,21.97
2018-11-21T06:30:32.326Z,20.88
2018-11-21T06:32:59.992Z,21.65
2018-11-21T06:35:27.422Z,22.15
2018-11-21T06:37:54.774Z,21.42
2018-11-21T06:40:22.508Z,58.20
2018-11-21T06:42:57.535Z,41.63
2018-11-21T06:45:29.291Z,28.07
2018-11-21T06:47:56.753Z,22.90
2018-11-21T06:50:24.104Z,22.37
2018-11-21T06:52:52.179Z,22.60
2018-11-21T06:55:19.520Z,23.77
2018-11-21T06:57:47.019Z,22.60
2018-11-21T07:00:14.412Z,22.75
2018-11-21T07:02:41.826Z,20.60
2018-11-21T07:05:10.157Z,21.25
2018-11-21T07:07:37.488Z,23.20
2018-11-21T07:10:11.438Z,23.67
2018-11-21T07:12:38.844Z,23.47
2018-11-21T07:15:06.501Z,24.43
2018-11-21T07:17:33.872Z,22.80
2018-11-21T07:20:01.261Z,22.82
2018-11-21T07:22:28.641Z,22.37
2018-11-21T07:24:59.105Z,23.05
2018-11-21T07:27:30.190Z,22.50
2018-11-21T07:30:05.483Z,22.05
2018-11-21T07:32:34.734Z,22.52
2018-11-21T07:35:02.035Z,22.75
2018-11-21T07:37:29.682Z,21.93
2018-11-21T07:39:57.039Z,22.27
2018-11-21T07:42:24.417Z,21.75
2018-11-21T07:44:51.915Z,22.33
2018-11-21T07:47:19.240Z,22.37
2018-11-21T07:49:46.906Z,23.10
2018-11-21T07:52:16.776Z,22.37
2018-11-21T07:54:44.162Z,22.55
2018-11-21T07:57:32.785Z,21.97
2018-11-21T08:00:43.705Z,22.13
2018-11-21T08:03:11.195Z,20.90
2018-11-21T08:05:44.327Z,22.60
2018-11-21T08:08:25.181Z,23.02
2018-11-21T08:11:21.242Z,22.20
2018-11-21T08:14:25.566Z,23.03
2018-11-21T08:17:18.918Z,21.77
2018-11-21T08:20:04.078Z,19.67
2018-11-21T08:22:57.139Z,21.48
2018-11-21T08:25:55.703Z,23.27
2018-11-21T08:28:30.019Z,22.77
2018-11-21T08:30:57.441Z,21.63
2018-11-21T08:33:24.801Z,20.80
2018-11-21T08:35:57.127Z,21.27
2018-11-21T08:38:24.495Z,21.07
2018-11-21T08:40:51.802Z,18.87
2018-11-21T08:43:19.176Z,24.05
2018-11-21T08:45:46.567Z,21.60
2018-11-21T08:48:14.601Z,22.60
2018-11-21T08:50:41.976Z,22.80
2018-11-21T08:53:09.277Z,22.10
2018-11-21T08:55:36.957Z,23.00
2018-11-21T08:58:04.580Z,23.07
2018-11-21T09:00:32.167Z,23.57
2018-11-21T09:03:03.704Z,21.53
2018-11-21T09:05:31.155Z,21.90
2018-11-21T09:08:03.006Z,20.93
2018-11-21T09:13:03.584Z,22.43
2018-11-21T09:15:37.372Z,23.03
2018-11-21T09:18:07.181Z,21.30
2018-11-21T09:20:34.700Z,21.00
2018-11-21T09:23:05.092Z,20.37
2018-11-21T09:25:34.993Z,25.20
2018-11-21T09:28:04.988Z,22.57
2018-11-21T09:30:32.338Z,20.90
2018-11-21T09:33:02.002Z,20.40
2018-11-21T09:35:31.825Z,21.10
2018-11-21T09:38:01.981Z,20.80
2018-11-21T09:40:29.300Z,21.63
2018-11-21T09:42:56.669Z,22.37
2018-11-21T09:45:24.586Z,21.40
2018-11-21T09:47:51.882Z,21.13
2018-11-21T09:50:23.937Z,22.70
2018-11-21T09:52:51.422Z,20.40
2018-11-21T09:55:18.728Z,20.10
2018-11-21T09:57:45.985Z,20.20
2018-11-21T10:00:51.276Z,18.43
2018-11-21T10:03:20.372Z,20.70
2018-11-21T10:05:50.426Z,20.07
2018-11-21T10:08:51.964Z,22.13
2018-11-21T10:11:19.660Z,21.53
2018-11-21T10:13:46.989Z,19.50
2018-11-21T10:16:17.553Z,21.53
2018-11-21T10:18:46.585Z,20.90
2018-11-21T10:21:17.824Z,21.30
2018-11-21T10:23:45.321Z,19.83
2018-11-21T10:26:15.234Z,20.03
2018-11-21T10:28:43.270Z,19.97
2018-11-21T10:31:13.011Z,18.57
2018-11-21T10:33:40.389Z,18.87
2018-11-21T10:36:08.029Z,20.03
2018-11-21T10:38:35.471Z,18.17
2018-11-21T10:41:07.239Z,18.70
2018-11-21T10:43:37.706Z,14.60
2018-11-21T10:46:05.339Z,12.43
2018-11-21T10:48:32.857Z,10.43
2018-11-21T10:51:03.669Z,11.40
2018-11-21T10:53:31.041Z,12.27
2018-11-21T10:55:59.623Z,13.73
2018-11-21T10:58:32.501Z,17.63
2018-11-21T11:01:28.350Z,15.87
2018-11-21T11:04:04.442Z,16.77
2018-11-21T11:07:11.254Z,12.97
2018-11-21T11:09:55.738Z,13.03
2018-11-21T11:12:33.213Z,14.67
2018-11-21T11:15:16.620Z,14.17
2018-11-21T11:18:15.444Z,14.53
2018-11-21T11:21:08.694Z,12.83
2018-11-21T11:23:55.622Z,13.50
2018-11-21T11:26:45.369Z,13.87
2018-11-21T11:29:30.754Z,7.47
2018-11-21T11:32:19.248Z,9.57
2018-11-21T11:35:08.684Z,9.10
2018-11-21T11:37:53.260Z,9.30
2018-11-21T11:40:52.272Z,7.30
2018-11-21T11:43:48.209Z,7.60
2018-11-21T11:46:38.407Z,7.00
2018-11-21T11:49:30.631Z,9.27
2018-11-21T11:52:34.058Z,6.87
2018-11-21T11:55:21.008Z,6.27
2018-11-21T11:58:06.846Z,6.80
2018-11-21T12:00:53.775Z,6.67
2018-11-21T12:03:47.289Z,5.90
2018-11-21T12:06:32.966Z,7.10
2018-11-21T12:09:15.730Z,6.60
2018-11-21T12:12:04.739Z,7.53
2018-11-21T12:14:49.704Z,6.77
2018-11-21T12:17:35.580Z,6.77
2018-11-21T12:20:49.847Z,7.20
2018-11-21T12:23:42.917Z,6.50
2018-11-21T12:26:19.124Z,7.47
2018-11-21T12:29:21.011Z,6.70
2018-11-21T12:32:09.361Z,7.30
2018-11-21T12:34:56.529Z,7.37
2018-11-21T12:38:04.105Z,6.73
2018-11-21T12:41:02.459Z,6.33
2018-11-21T12:43:51.708Z,7.23
2018-11-21T12:46:54.030Z,7.03
2018-11-21T12:49:36.665Z,6.43
2018-11-21T12:52:29.846Z,7.57
2018-11-21T12:55:15.462Z,7.07
2018-11-21T12:58:00.970Z,7.30
2018-11-21T13:00:46.953Z,6.83
2018-11-21T13:03:32.614Z,7.77
2018-11-21T13:06:20.320Z,6.80
2018-11-21T13:09:22.461Z,7.50
2018-11-21T13:12:27.208Z,9.97
2018-11-21T13:15:12.745Z,12.07
2018-11-21T13:18:01.633Z,12.50
2018-11-21T13:21:00.924Z,12.63
2018-11-21T13:23:46.722Z,13.03
2018-11-21T13:26:32.254Z,14.17
2018-11-21T13:29:33.539Z,14.53
2018-11-21T13:32:32.668Z,14.17
2018-11-21T13:35:18.541Z,14.10
2018-11-21T13:38:04.346Z,13.73
2018-11-21T13:40:51.576Z,13.97
2018-11-21T13:43:41.585Z,13.47
2018-11-21T13:46:28.504Z,9.90
2018-11-21T13:49:17.757Z,11.33
2018-11-21T13:52:20.090Z,10.17
2018-11-21T13:54:49.761Z,11.33
2018-11-21T13:57:21.181Z,14.67
2018-11-21T13:59:48.560Z,16.57
2018-11-21T14:02:15.960Z,16.67
2018-11-21T14:04:43.326Z,16.90
2018-11-21T14:07:13.144Z,15.87
2018-11-21T14:09:40.916Z,16.60
2018-11-21T14:12:10.000Z,17.93
2018-11-21T14:14:40.556Z,17.27
2018-11-21T14:17:18.048Z,20.30
2018-11-21T14:19:43.846Z,20.60
2018-11-21T14:22:11.197Z,22.10
2018-11-21T14:24:43.600Z,22.47
2018-11-21T14:27:10.996Z,23.43
2018-11-21T14:29:41.236Z,23.60
2018-11-21T14:32:08.773Z,24.43
2018-11-21T14:34:36.215Z,24.00
2018-11-21T14:37:03.949Z,24.40
2018-11-21T14:39:31.311Z,25.60
2018-11-21T14:41:59.267Z,23.20
2018-11-21T14:44:51.104Z,24.90
2018-11-21T14:47:18.729Z,24.40
2018-11-21T14:49:52.860Z,24.93
2018-11-21T14:52:20.179Z,26.70
2018-11-21T14:54:47.510Z,26.57
2018-11-21T14:57:14.791Z,27.20
2018-11-21T14:59:42.237Z,26.00
2018-11-21T15:02:09.558Z,28.17
2018-11-21T15:04:36.935Z,27.80
2018-11-21T15:07:06.479Z,27.87
2018-11-21T15:09:35.325Z,28.63
2018-11-21T15:12:07.298Z,29.10
2018-11-21T15:14:34.641Z,28.87
2018-11-21T15:17:02.286Z,30.53
2018-11-21T15:19:31.425Z,29.77
2018-11-21T15:22:03.713Z,31.50
2018-11-21T15:24:33.868Z,31.70
2018-11-21T15:27:04.401Z,30.97
2018-11-21T15:29:32.038Z,29.87
2018-11-21T15:31:59.461Z,31.03
2018-11-21T15:34:27.099Z,31.60
2018-11-21T15:37:05.249Z,30.27
2018-11-21T15:39:35.019Z,31.80
2018-11-21T15:42:02.325Z,30.37
2018-11-21T15:44:32.092Z,31.17
2018-11-21T15:47:04.235Z,31.23
2018-11-21T15:49:31.728Z,30.50
2018-11-21T15:52:05.021Z,31.43
2018-11-21T15:54:33.655Z,30.80
2018-11-21T15:57:00.981Z,29.90
2018-11-21T15:59:28.335Z,30.23
2018-11-21T16:01:58.483Z,29.67
2018-11-21T16:04:34.000Z,30.77
2018-11-21T16:07:04.627Z,28.57
2018-11-21T16:09:34.451Z,29.67
2018-11-21T16:12:04.356Z,30.97
2018-11-21T16:14:31.888Z,30.17
2018-11-21T16:16:59.236Z,31.17
2018-11-21T16:19:29.109Z,30.57
2018-11-21T16:21:56.578Z,30.80
2018-11-21T16:24:26.435Z,30.73
2018-11-21T16:26:56.762Z,30.10
2018-11-21T16:29:24.266Z,29.83
2018-11-21T16:31:54.340Z,31.33
2018-11-21T16:34:26.285Z,31.23
2018-11-21T16:36:58.192Z,28.73
2018-11-21T16:39:25.504Z,29.83
2018-11-21T16:41:55.779Z,30.17
2018-11-21T16:44:23.153Z,32.47
2018-11-21T16:46:50.654Z,30.37
2018-11-21T16:49:23.192Z,27.67
2018-11-21T16:51:50.741Z,32.53
2018-11-21T16:54:18.121Z,31.77
2018-11-21T16:56:54.643Z,31.33
2018-11-21T16:59:24.999Z,31.23
2018-11-21T17:02:01.297Z,32.20
2018-11-21T17:04:31.357Z,31.23
2018-11-21T17:06:58.665Z,31.43
2018-11-21T17:09:41.822Z,33.47
2018-11-21T17:12:12.867Z,32.70
2018-11-21T17:14:43.568Z,31.13
2018-11-21T17:17:14.173Z,32.20
2018-11-21T17:19:44.686Z,34.37
2018-11-21T17:22:15.075Z,32.90
2018-11-21T17:24:49.239Z,32.13
2018-11-21T17:27:21.892Z,34.23
2018-11-21T17:29:53.886Z,33.03
2018-11-21T17:32:19.082Z,33.60
